sensor_id;sensor_type;location;lat;lon;timestamp;temperature;humidity
9847;DHT22;68671;50.084;8.794;2023-08-31T00:02:26;17.60;99.90
9847;DHT22;68671;50.084;8.794;2023-08-31T00:04:53;17.60;99.90
9847;DHT22;68671;50.084;8.794;2023-08-31T00:07:21;17.50;99.90
9847;DHT22;68671;50.084;8.794;2023-08-31T00:09:48;17.50;99.90
9847;DHT22;68671;50.084;8.794;2023-08-31T00:12:17;17.50;99.90
9847;DHT22;68671;50.084;8.794;2023-08-31T00:14:43;17.40;99.90
9847;DHT22;68671;50.084;8.794;2023-08-31T00:17:10;17.40;99.90
9847;DHT22;68671;50.084;8.794;2023-08-31T00:19:39;17.40;99.90
9847;DHT22;68671;50.084;8.794;2023-08-31T00:22:05;17.50;99.90
9847;DHT22;68671;50.084;8.794;2023-08-31T00:24:33;17.50;99.90
9847;DHT22;68671;50.084;8.794;2023-08-31T00:27:02;17.50;99.90
9847;DHT22;68671;50.084;8.794;2023-08-31T00:29:30;17.50;99.90
9847;DHT22;68671;50.084;8.794;2023-08-31T00:31:57;17.50;99.90
9847;DHT22;68671;50.084;8.794;2023-08-31T00:34:24;17.50;99.90
9847;DHT22;68671;50.084;8.794;2023-08-31T00:36:51;17.50;99.90
9847;DHT22;68671;50.084;8.794;2023-08-31T00:39:18;17.50;99.90
9847;DHT22;68671;50.084;8.794;2023-08-31T00:41:46;17.50;99.90
9847;DHT22;68671;50.084;8.794;2023-08-31T00:44:13;17.50;99.90
9847;DHT22;68671;50.084;8.794;2023-08-31T00:46:42;17.50;99.90
9847;DHT22;68671;50.084;8.794;2023-08-31T00:49:09;17.50;99.90
9847;DHT22;68671;50.084;8.794;2023-08-31T00:51:36;17.40;99.90
9847;DHT22;68671;50.084;8.794;2023-08-31T00:54:03;17.40;99.90
9847;DHT22;68671;50.084;8.794;2023-08-31T00:56:31;17.40;99.90
9847;DHT22;68671;50.084;8.794;2023-08-31T00:58:58;17.40;99.90
9847;DHT22;68671;50.084;8.794;2023-08-31T01:01:32;17.40;99.90
9847;DHT22;68671;50.084;8.794;2023-08-31T01:04:12;17.40;99.90
9847;DHT22;68671;50.084;8.794;2023-08-31T01:06:51;17.30;99.90
9847;DHT22;68671;50.084;8.794;2023-08-31T01:09:29;17.30;99.90
9847;DHT22;68671;50.084;8.794;2023-08-31T01:12:02;17.30;99.90
9847;DHT22;68671;50.084;8.794;2023-08-31T01:14:34;17.30;99.90
9847;DHT22;68671;50.084;8.794;2023-08-31T01:17:08;17.20;99.90
9847;DHT22;68671;50.084;8.794;2023-08-31T01:19:45;17.20;99.90
9847;DHT22;68671;50.084;8.794;2023-08-31T01:22:26;17.20;99.90
9847;DHT22;68671;50.084;8.794;2023-08-31T01:24:58;17.20;99.90
9847;DHT22;68671;50.084;8.794;2023-08-31T01:27:29;17.10;99.90
9847;DHT22;68671;50.084;8.794;2023-08-31T01:29:57;17.10;99.90
9847;DHT22;68671;50.084;8.794;2023-08-31T01:32:24;17.20;99.90
9847;DHT22;68671;50.084;8.794;2023-08-31T01:34:52;17.10;99.90
9847;DHT22;68671;50.084;8.794;2023-08-31T01:37:24;17.10;99.90
9847;DHT22;68671;50.084;8.794;2023-08-31T01:39:58;17.00;99.90
9847;DHT22;68671;50.084;8.794;2023-08-31T01:42:29;17.10;99.90
9847;DHT22;68671;50.084;8.794;2023-08-31T01:44:59;17.00;99.90
9847;DHT22;68671;50.084;8.794;2023-08-31T01:47:27;17.00;99.90
9847;DHT22;68671;50.084;8.794;2023-08-31T01:49:54;16.90;99.90
9847;DHT22;68671;50.084;8.794;2023-08-31T01:52:21;16.90;99.90
9847;DHT22;68671;50.084;8.794;2023-08-31T01:54:48;16.90;99.90
9847;DHT22;68671;50.084;8.794;2023-08-31T01:57:16;16.90;99.90
9847;DHT22;68671;50.084;8.794;2023-08-31T01:59:43;16.80;99.90
9847;DHT22;68671;50.084;8.794;2023-08-31T02:02:10;16.80;99.90
9847;DHT22;68671;50.084;8.794;2023-08-31T02:04:37;16.80;99.90
9847;DHT22;68671;50.084;8.794;2023-08-31T02:07:04;16.70;99.90
9847;DHT22;68671;50.084;8.794;2023-08-31T02:09:31;16.70;99.90
9847;DHT22;68671;50.084;8.794;2023-08-31T02:11:57;16.60;99.90
9847;DHT22;68671;50.084;8.794;2023-08-31T02:14:26;16.60;99.90
9847;DHT22;68671;50.084;8.794;2023-08-31T02:16:53;16.50;99.90
9847;DHT22;68671;50.084;8.794;2023-08-31T02:19:20;16.50;99.90
9847;DHT22;68671;50.084;8.794;2023-08-31T02:21:47;16.50;99.90
9847;DHT22;68671;50.084;8.794;2023-08-31T02:24:14;16.50;99.90
9847;DHT22;68671;50.084;8.794;2023-08-31T02:26:41;16.40;99.90
9847;DHT22;68671;50.084;8.794;2023-08-31T02:29:08;16.40;99.90
9847;DHT22;68671;50.084;8.794;2023-08-31T02:31:36;16.40;99.90
9847;DHT22;68671;50.084;8.794;2023-08-31T02:34:04;16.40;99.90
9847;DHT22;68671;50.084;8.794;2023-08-31T02:36:31;16.30;99.90
9847;DHT22;68671;50.084;8.794;2023-08-31T02:38:57;16.30;99.90
9847;DHT22;68671;50.084;8.794;2023-08-31T02:41:24;16.30;99.90
9847;DHT22;68671;50.084;8.794;2023-08-31T02:43:51;16.20;99.90
9847;DHT22;68671;50.084;8.794;2023-08-31T02:46:24;16.20;99.90
9847;DHT22;68671;50.084;8.794;2023-08-31T02:48:52;16.20;99.90
9847;DHT22;68671;50.084;8.794;2023-08-31T02:51:19;16.20;99.90
9847;DHT22;68671;50.084;8.794;2023-08-31T02:53:46;16.10;99.90
9847;DHT22;68671;50.084;8.794;2023-08-31T02:56:14;16.20;99.90
9847;DHT22;68671;50.084;8.794;2023-08-31T02:58:41;16.20;99.90
9847;DHT22;68671;50.084;8.794;2023-08-31T03:01:09;16.20;99.90
9847;DHT22;68671;50.084;8.794;2023-08-31T03:03:37;16.20;99.90
9847;DHT22;68671;50.084;8.794;2023-08-31T03:06:06;16.20;99.90
9847;DHT22;68671;50.084;8.794;2023-08-31T03:08:33;16.10;99.90
9847;DHT22;68671;50.084;8.794;2023-08-31T03:11:00;16.20;99.90
9847;DHT22;68671;50.084;8.794;2023-08-31T03:13:26;16.20;99.90
9847;DHT22;68671;50.084;8.794;2023-08-31T03:15:53;16.20;99.90
9847;DHT22;68671;50.084;8.794;2023-08-31T03:18:21;16.10;99.90
9847;DHT22;68671;50.084;8.794;2023-08-31T03:20:48;16.10;99.90
9847;DHT22;68671;50.084;8.794;2023-08-31T03:23:17;16.10;99.90
9847;DHT22;68671;50.084;8.794;2023-08-31T03:25:44;16.10;99.90
9847;DHT22;68671;50.084;8.794;2023-08-31T03:28:11;16.20;99.90
9847;DHT22;68671;50.084;8.794;2023-08-31T03:30:38;16.10;99.90
9847;DHT22;68671;50.084;8.794;2023-08-31T03:33:05;16.20;99.90
9847;DHT22;68671;50.084;8.794;2023-08-31T03:35:32;16.20;99.90
9847;DHT22;68671;50.084;8.794;2023-08-31T03:37:59;16.20;99.90
9847;DHT22;68671;50.084;8.794;2023-08-31T03:40:27;16.20;99.90
9847;DHT22;68671;50.084;8.794;2023-08-31T03:42:54;16.10;99.90
9847;DHT22;68671;50.084;8.794;2023-08-31T03:45:21;16.20;99.90
9847;DHT22;68671;50.084;8.794;2023-08-31T03:47:48;16.20;99.90
9847;DHT22;68671;50.084;8.794;2023-08-31T03:50:15;16.20;99.90
9847;DHT22;68671;50.084;8.794;2023-08-31T03:52:42;16.20;99.90
9847;DHT22;68671;50.084;8.794;2023-08-31T03:55:09;16.10;99.90
9847;DHT22;68671;50.084;8.794;2023-08-31T03:57:38;16.10;99.90
9847;DHT22;68671;50.084;8.794;2023-08-31T04:00:06;16.20;99.90
9847;DHT22;68671;50.084;8.794;2023-08-31T04:02:34;16.20;99.90
9847;DHT22;68671;50.084;8.794;2023-08-31T04:05:03;16.10;99.90
9847;DHT22;68671;50.084;8.794;2023-08-31T04:07:31;16.10;99.90
9847;DHT22;68671;50.084;8.794;2023-08-31T04:09:58;16.10;99.90
9847;DHT22;68671;50.084;8.794;2023-08-31T04:12:27;16.10;99.90
9847;DHT22;68671;50.084;8.794;2023-08-31T04:14:57;16.00;99.90
9847;DHT22;68671;50.084;8.794;2023-08-31T04:17:24;16.10;99.90
9847;DHT22;68671;50.084;8.794;2023-08-31T04:19:51;16.00;99.90
9847;DHT22;68671;50.084;8.794;2023-08-31T04:22:19;16.00;99.90
9847;DHT22;68671;50.084;8.794;2023-08-31T04:24:46;16.00;99.90
9847;DHT22;68671;50.084;8.794;2023-08-31T04:27:13;16.00;99.90
9847;DHT22;68671;50.084;8.794;2023-08-31T04:29:39;16.00;99.90
9847;DHT22;68671;50.084;8.794;2023-08-31T04:32:08;16.00;99.90
9847;DHT22;68671;50.084;8.794;2023-08-31T04:34:35;15.90;99.90
9847;DHT22;68671;50.084;8.794;2023-08-31T04:37:02;15.90;99.90
9847;DHT22;68671;50.084;8.794;2023-08-31T04:39:29;15.90;99.90
9847;DHT22;68671;50.084;8.794;2023-08-31T04:41:56;15.90;99.90
9847;DHT22;68671;50.084;8.794;2023-08-31T04:44:23;15.90;99.90
9847;DHT22;68671;50.084;8.794;2023-08-31T04:46:50;15.90;99.90
9847;DHT22;68671;50.084;8.794;2023-08-31T04:49:18;15.80;99.90
9847;DHT22;68671;50.084;8.794;2023-08-31T04:51:46;15.90;99.90
9847;DHT22;68671;50.084;8.794;2023-08-31T04:54:13;15.80;99.90
9847;DHT22;68671;50.084;8.794;2023-08-31T04:56:40;15.80;99.90
9847;DHT22;68671;50.084;8.794;2023-08-31T04:59:07;15.80;99.90
9847;DHT22;68671;50.084;8.794;2023-08-31T05:01:34;15.80;99.90
9847;DHT22;68671;50.084;8.794;2023-08-31T05:04:02;15.80;99.90
9847;DHT22;68671;50.084;8.794;2023-08-31T05:06:31;15.70;99.90
9847;DHT22;68671;50.084;8.794;2023-08-31T05:08:58;15.80;99.90
9847;DHT22;68671;50.084;8.794;2023-08-31T05:11:25;15.80;99.90
9847;DHT22;68671;50.084;8.794;2023-08-31T05:13:52;15.90;99.90
9847;DHT22;68671;50.084;8.794;2023-08-31T05:16:19;15.90;99.90
9847;DHT22;68671;50.084;8.794;2023-08-31T05:18:46;15.90;99.90
9847;DHT22;68671;50.084;8.794;2023-08-31T05:21:13;16.00;99.90
9847;DHT22;68671;50.084;8.794;2023-08-31T05:23:41;16.00;99.90
9847;DHT22;68671;50.084;8.794;2023-08-31T05:26:08;16.10;99.90
9847;DHT22;68671;50.084;8.794;2023-08-31T05:28:36;16.10;99.90
9847;DHT22;68671;50.084;8.794;2023-08-31T05:31:03;16.10;99.90
9847;DHT22;68671;50.084;8.794;2023-08-31T05:33:30;16.30;99.90
9847;DHT22;68671;50.084;8.794;2023-08-31T05:36:01;16.40;99.90
9847;DHT22;68671;50.084;8.794;2023-08-31T05:38:29;16.60;99.90
9847;DHT22;68671;50.084;8.794;2023-08-31T05:41:05;16.90;99.90
9847;DHT22;68671;50.084;8.794;2023-08-31T05:43:33;17.20;99.90
9847;DHT22;68671;50.084;8.794;2023-08-31T05:46:00;17.50;99.90
9847;DHT22;68671;50.084;8.794;2023-08-31T05:48:27;17.80;99.90
9847;DHT22;68671;50.084;8.794;2023-08-31T05:50:56;18.10;99.90
9847;DHT22;68671;50.084;8.794;2023-08-31T05:53:23;18.40;99.90
9847;DHT22;68671;50.084;8.794;2023-08-31T05:55:50;18.70;99.90
9847;DHT22;68671;50.084;8.794;2023-08-31T05:58:18;19.00;99.90
9847;DHT22;68671;50.084;8.794;2023-08-31T06:00:45;19.30;99.90
9847;DHT22;68671;50.084;8.794;2023-08-31T06:03:14;19.70;99.90
9847;DHT22;68671;50.084;8.794;2023-08-31T06:05:41;20.10;99.90
9847;DHT22;68671;50.084;8.794;2023-08-31T06:08:20;20.40;99.90
9847;DHT22;68671;50.084;8.794;2023-08-31T06:10:47;20.50;99.90
9847;DHT22;68671;50.084;8.794;2023-08-31T06:13:14;20.60;99.90
9847;DHT22;68671;50.084;8.794;2023-08-31T06:15:43;20.80;99.90
9847;DHT22;68671;50.084;8.794;2023-08-31T06:18:12;21.00;99.90
9847;DHT22;68671;50.084;8.794;2023-08-31T06:20:39;21.20;99.90
9847;DHT22;68671;50.084;8.794;2023-08-31T06:23:06;21.60;99.90
9847;DHT22;68671;50.084;8.794;2023-08-31T06:25:33;21.80;99.90
9847;DHT22;68671;50.084;8.794;2023-08-31T06:28:00;22.10;99.90
9847;DHT22;68671;50.084;8.794;2023-08-31T06:30:28;22.30;99.90
9847;DHT22;68671;50.084;8.794;2023-08-31T06:32:56;22.60;99.90
9847;DHT22;68671;50.084;8.794;2023-08-31T06:35:23;22.80;99.90
9847;DHT22;68671;50.084;8.794;2023-08-31T06:37:50;23.00;99.90
9847;DHT22;68671;50.084;8.794;2023-08-31T06:40:17;23.10;99.90
9847;DHT22;68671;50.084;8.794;2023-08-31T06:42:44;23.30;99.90
9847;DHT22;68671;50.084;8.794;2023-08-31T06:45:11;23.60;99.90
9847;DHT22;68671;50.084;8.794;2023-08-31T06:47:38;23.80;99.90
9847;DHT22;68671;50.084;8.794;2023-08-31T06:50:07;24.20;99.90
9847;DHT22;68671;50.084;8.794;2023-08-31T06:52:34;24.40;99.90
9847;DHT22;68671;50.084;8.794;2023-08-31T06:55:02;24.60;99.90
9847;DHT22;68671;50.084;8.794;2023-08-31T06:57:31;24.90;99.90
9847;DHT22;68671;50.084;8.794;2023-08-31T06:59:58;25.10;99.90
9847;DHT22;68671;50.084;8.794;2023-08-31T07:02:26;25.40;99.90
9847;DHT22;68671;50.084;8.794;2023-08-31T07:04:53;25.70;99.90
9847;DHT22;68671;50.084;8.794;2023-08-31T07:07:22;26.10;99.30
9847;DHT22;68671;50.084;8.794;2023-08-31T07:09:50;26.30;98.00
9847;DHT22;68671;50.084;8.794;2023-08-31T07:12:17;26.50;97.50
9847;DHT22;68671;50.084;8.794;2023-08-31T07:14:44;26.70;96.90
9847;DHT22;68671;50.084;8.794;2023-08-31T07:17:11;27.00;96.40
9847;DHT22;68671;50.084;8.794;2023-08-31T07:19:38;27.30;96.20
9847;DHT22;68671;50.084;8.794;2023-08-31T07:22:06;27.60;95.40
9847;DHT22;68671;50.084;8.794;2023-08-31T07:24:34;27.90;94.50
9847;DHT22;68671;50.084;8.794;2023-08-31T07:27:02;28.20;93.70
9847;DHT22;68671;50.084;8.794;2023-08-31T07:29:29;28.50;93.10
9847;DHT22;68671;50.084;8.794;2023-08-31T07:31:57;28.80;92.30
9847;DHT22;68671;50.084;8.794;2023-08-31T07:34:24;29.30;91.40
9847;DHT22;68671;50.084;8.794;2023-08-31T07:36:52;29.60;90.40
9847;DHT22;68671;50.084;8.794;2023-08-31T07:39:19;29.90;88.80
9847;DHT22;68671;50.084;8.794;2023-08-31T07:41:47;30.10;87.40
9847;DHT22;68671;50.084;8.794;2023-08-31T07:44:14;30.40;85.50
9847;DHT22;68671;50.084;8.794;2023-08-31T07:46:41;30.60;83.80
9847;DHT22;68671;50.084;8.794;2023-08-31T07:49:08;30.70;82.50
9847;DHT22;68671;50.084;8.794;2023-08-31T07:51:35;30.90;81.20
9847;DHT22;68671;50.084;8.794;2023-08-31T07:54:03;31.00;79.60
9847;DHT22;68671;50.084;8.794;2023-08-31T07:56:30;31.00;78.90
9847;DHT22;68671;50.084;8.794;2023-08-31T07:58:58;31.10;77.80
9847;DHT22;68671;50.084;8.794;2023-08-31T08:01:28;31.10;76.70
9847;DHT22;68671;50.084;8.794;2023-08-31T08:04:18;31.10;75.60
9847;DHT22;68671;50.084;8.794;2023-08-31T08:06:54;31.10;74.10
9847;DHT22;68671;50.084;8.794;2023-08-31T08:09:21;30.90;73.30
9847;DHT22;68671;50.084;8.794;2023-08-31T08:11:48;30.60;72.60
9847;DHT22;68671;50.084;8.794;2023-08-31T08:14:20;30.30;71.70
9847;DHT22;68671;50.084;8.794;2023-08-31T08:16:47;29.70;71.10
9847;DHT22;68671;50.084;8.794;2023-08-31T08:19:21;29.10;71.50
9847;DHT22;68671;50.084;8.794;2023-08-31T08:21:53;28.40;72.30
9847;DHT22;68671;50.084;8.794;2023-08-31T08:24:20;27.80;73.90
9847;DHT22;68671;50.084;8.794;2023-08-31T08:26:48;27.30;75.80
9847;DHT22;68671;50.084;8.794;2023-08-31T08:29:15;26.80;77.90
9847;DHT22;68671;50.084;8.794;2023-08-31T08:31:43;26.40;79.80
9847;DHT22;68671;50.084;8.794;2023-08-31T08:34:10;26.00;82.50
9847;DHT22;68671;50.084;8.794;2023-08-31T08:36:44;25.60;82.30
9847;DHT22;68671;50.084;8.794;2023-08-31T08:39:13;25.30;84.10
9847;DHT22;68671;50.084;8.794;2023-08-31T08:41:42;24.90;85.70
9847;DHT22;68671;50.084;8.794;2023-08-31T08:44:10;24.70;88.00
9847;DHT22;68671;50.084;8.794;2023-08-31T08:46:38;24.40;89.60
9847;DHT22;68671;50.084;8.794;2023-08-31T08:49:07;24.20;90.50
9847;DHT22;68671;50.084;8.794;2023-08-31T08:51:36;24.10;91.30
9847;DHT22;68671;50.084;8.794;2023-08-31T08:54:03;23.90;91.70
9847;DHT22;68671;50.084;8.794;2023-08-31T09:03:49;23.40;93.20
9847;DHT22;68671;50.084;8.794;2023-08-31T09:06:27;23.20;93.90
9847;DHT22;68671;50.084;8.794;2023-08-31T09:08:55;23.00;94.60
9847;DHT22;68671;50.084;8.794;2023-08-31T09:11:23;23.00;95.50
9847;DHT22;68671;50.084;8.794;2023-08-31T09:13:54;22.90;95.70
9847;DHT22;68671;50.084;8.794;2023-08-31T09:16:26;22.90;95.90
9847;DHT22;68671;50.084;8.794;2023-08-31T09:18:56;22.80;96.10
9847;DHT22;68671;50.084;8.794;2023-08-31T09:21:36;22.80;96.10
9847;DHT22;68671;50.084;8.794;2023-08-31T09:24:07;22.70;96.60
9847;DHT22;68671;50.084;8.794;2023-08-31T09:26:38;22.70;97.10
9847;DHT22;68671;50.084;8.794;2023-08-31T09:29:09;22.80;97.20
9847;DHT22;68671;50.084;8.794;2023-08-31T09:31:46;22.80;97.40
9847;DHT22;68671;50.084;8.794;2023-08-31T09:34:14;22.80;96.90
9847;DHT22;68671;50.084;8.794;2023-08-31T09:36:46;22.80;97.40
9847;DHT22;68671;50.084;8.794;2023-08-31T09:39:24;22.90;97.70
9847;DHT22;68671;50.084;8.794;2023-08-31T09:45:09;23.00;97.60
9847;DHT22;68671;50.084;8.794;2023-08-31T09:47:41;23.10;96.60
9847;DHT22;68671;50.084;8.794;2023-08-31T09:50:23;23.10;95.60
9847;DHT22;68671;50.084;8.794;2023-08-31T09:52:55;23.10;95.70
9847;DHT22;68671;50.084;8.794;2023-08-31T09:55:25;23.10;95.50
9847;DHT22;68671;50.084;8.794;2023-08-31T09:57:59;23.20;96.10
9847;DHT22;68671;50.084;8.794;2023-08-31T10:00:34;23.20;96.10
9847;DHT22;68671;50.084;8.794;2023-08-31T10:03:06;23.30;95.80
9847;DHT22;68671;50.084;8.794;2023-08-31T10:05:34;23.30;95.50
9847;DHT22;68671;50.084;8.794;2023-08-31T10:08:03;23.30;95.50
9847;DHT22;68671;50.084;8.794;2023-08-31T10:10:30;23.40;95.30
9847;DHT22;68671;50.084;8.794;2023-08-31T10:12:58;23.40;95.20
9847;DHT22;68671;50.084;8.794;2023-08-31T10:15:32;23.40;94.50
9847;DHT22;68671;50.084;8.794;2023-08-31T10:18:00;23.40;94.50
9847;DHT22;68671;50.084;8.794;2023-08-31T10:20:29;23.40;94.50
9847;DHT22;68671;50.084;8.794;2023-08-31T10:22:59;23.30;94.10
9847;DHT22;68671;50.084;8.794;2023-08-31T10:26:00;23.30;94.10
9847;DHT22;68671;50.084;8.794;2023-08-31T10:28:29;23.30;94.00
9847;DHT22;68671;50.084;8.794;2023-08-31T10:31:02;23.30;94.10
9847;DHT22;68671;50.084;8.794;2023-08-31T10:33:31;23.20;94.00
9847;DHT22;68671;50.084;8.794;2023-08-31T10:35:58;23.20;94.20
9847;DHT22;68671;50.084;8.794;2023-08-31T10:38:27;23.20;94.50
9847;DHT22;68671;50.084;8.794;2023-08-31T10:41:02;23.10;94.50
9847;DHT22;68671;50.084;8.794;2023-08-31T10:43:46;23.10;94.40
9847;DHT22;68671;50.084;8.794;2023-08-31T10:46:18;23.10;94.30
9847;DHT22;68671;50.084;8.794;2023-08-31T10:48:52;23.10;94.00
9847;DHT22;68671;50.084;8.794;2023-08-31T10:51:22;23.00;94.20
9847;DHT22;68671;50.084;8.794;2023-08-31T10:53:49;22.90;94.00
9847;DHT22;68671;50.084;8.794;2023-08-31T10:56:18;22.90;93.50
9847;DHT22;68671;50.084;8.794;2023-08-31T10:58:58;22.80;93.40
9847;DHT22;68671;50.084;8.794;2023-08-31T11:01:51;22.80;93.90
9847;DHT22;68671;50.084;8.794;2023-08-31T11:04:18;22.80;94.20
9847;DHT22;68671;50.084;8.794;2023-08-31T11:06:45;22.80;94.40
9847;DHT22;68671;50.084;8.794;2023-08-31T11:09:19;22.80;94.70
9847;DHT22;68671;50.084;8.794;2023-08-31T11:11:48;22.80;94.80
9847;DHT22;68671;50.084;8.794;2023-08-31T11:14:15;22.70;95.30
9847;DHT22;68671;50.084;8.794;2023-08-31T11:16:43;22.70;95.10
9847;DHT22;68671;50.084;8.794;2023-08-31T11:19:10;22.80;94.70
9847;DHT22;68671;50.084;8.794;2023-08-31T11:21:37;22.80;94.40
9847;DHT22;68671;50.084;8.794;2023-08-31T11:24:04;22.80;93.70
9847;DHT22;68671;50.084;8.794;2023-08-31T11:26:32;22.80;93.10
9847;DHT22;68671;50.084;8.794;2023-08-31T11:29:01;22.70;92.60
9847;DHT22;68671;50.084;8.794;2023-08-31T11:31:28;22.70;93.00
9847;DHT22;68671;50.084;8.794;2023-08-31T11:33:55;22.70;93.60
9847;DHT22;68671;50.084;8.794;2023-08-31T11:36:22;22.70;94.40
9847;DHT22;68671;50.084;8.794;2023-08-31T11:38:50;22.70;94.20
9847;DHT22;68671;50.084;8.794;2023-08-31T11:41:17;22.70;94.50
9847;DHT22;68671;50.084;8.794;2023-08-31T11:43:44;22.70;94.70
9847;DHT22;68671;50.084;8.794;2023-08-31T11:46:13;22.80;94.60
9847;DHT22;68671;50.084;8.794;2023-08-31T11:48:41;22.80;95.00
9847;DHT22;68671;50.084;8.794;2023-08-31T11:51:08;22.80;95.00
9847;DHT22;68671;50.084;8.794;2023-08-31T11:53:35;22.80;95.20
9847;DHT22;68671;50.084;8.794;2023-08-31T11:56:03;22.80;95.10
9847;DHT22;68671;50.084;8.794;2023-08-31T11:58:30;22.80;94.90
9847;DHT22;68671;50.084;8.794;2023-08-31T12:00:57;22.80;94.50
9847;DHT22;68671;50.084;8.794;2023-08-31T12:03:27;22.70;94.30
9847;DHT22;68671;50.084;8.794;2023-08-31T12:05:54;22.60;94.20
9847;DHT22;68671;50.084;8.794;2023-08-31T12:08:24;22.60;93.70
9847;DHT22;68671;50.084;8.794;2023-08-31T12:10:52;22.60;93.70
9847;DHT22;68671;50.084;8.794;2023-08-31T12:13:19;22.60;93.90
9847;DHT22;68671;50.084;8.794;2023-08-31T12:15:47;22.70;94.20
9847;DHT22;68671;50.084;8.794;2023-08-31T12:18:19;22.60;93.90
9847;DHT22;68671;50.084;8.794;2023-08-31T12:20:49;22.60;93.70
9847;DHT22;68671;50.084;8.794;2023-08-31T12:23:17;22.60;93.60
9847;DHT22;68671;50.084;8.794;2023-08-31T12:25:48;22.60;93.60
9847;DHT22;68671;50.084;8.794;2023-08-31T12:28:15;22.60;93.80
9847;DHT22;68671;50.084;8.794;2023-08-31T12:30:45;22.60;93.60
9847;DHT22;68671;50.084;8.794;2023-08-31T12:33:12;22.50;93.80
9847;DHT22;68671;50.084;8.794;2023-08-31T12:35:39;22.50;94.00
9847;DHT22;68671;50.084;8.794;2023-08-31T12:38:08;22.50;93.70
9847;DHT22;68671;50.084;8.794;2023-08-31T12:40:35;22.60;93.50
9847;DHT22;68671;50.084;8.794;2023-08-31T12:43:04;22.50;93.70
9847;DHT22;68671;50.084;8.794;2023-08-31T12:45:31;22.50;94.00
9847;DHT22;68671;50.084;8.794;2023-08-31T12:47:58;22.50;94.00
9847;DHT22;68671;50.084;8.794;2023-08-31T12:50:25;22.60;93.90
9847;DHT22;68671;50.084;8.794;2023-08-31T12:52:52;22.60;93.70
9847;DHT22;68671;50.084;8.794;2023-08-31T12:55:20;22.60;93.80
9847;DHT22;68671;50.084;8.794;2023-08-31T12:57:47;22.70;94.40
9847;DHT22;68671;50.084;8.794;2023-08-31T13:00:15;22.70;94.60
9847;DHT22;68671;50.084;8.794;2023-08-31T13:02:43;22.70;94.50
9847;DHT22;68671;50.084;8.794;2023-08-31T13:05:10;22.70;94.20
9847;DHT22;68671;50.084;8.794;2023-08-31T13:07:38;22.70;94.40
9847;DHT22;68671;50.084;8.794;2023-08-31T13:10:06;22.70;94.50
9847;DHT22;68671;50.084;8.794;2023-08-31T13:12:35;22.70;94.40
9847;DHT22;68671;50.084;8.794;2023-08-31T13:15:03;22.60;94.40
9847;DHT22;68671;50.084;8.794;2023-08-31T13:17:30;22.60;94.70
9847;DHT22;68671;50.084;8.794;2023-08-31T13:19:57;22.60;94.90
9847;DHT22;68671;50.084;8.794;2023-08-31T13:22:24;22.60;95.10
9847;DHT22;68671;50.084;8.794;2023-08-31T13:24:52;22.70;95.40
9847;DHT22;68671;50.084;8.794;2023-08-31T13:27:19;22.70;95.50
9847;DHT22;68671;50.084;8.794;2023-08-31T13:29:47;22.70;96.00
9847;DHT22;68671;50.084;8.794;2023-08-31T13:32:14;22.70;95.50
9847;DHT22;68671;50.084;8.794;2023-08-31T13:34:41;22.70;94.80
9847;DHT22;68671;50.084;8.794;2023-08-31T13:37:08;22.70;93.40
9847;DHT22;68671;50.084;8.794;2023-08-31T13:39:37;22.70;92.20
9847;DHT22;68671;50.084;8.794;2023-08-31T13:42:05;22.70;91.40
9847;DHT22;68671;50.084;8.794;2023-08-31T13:44:33;22.70;91.20
9847;DHT22;68671;50.084;8.794;2023-08-31T13:47:02;22.70;91.30
9847;DHT22;68671;50.084;8.794;2023-08-31T13:49:30;22.70;91.60
9847;DHT22;68671;50.084;8.794;2023-08-31T13:51:58;22.80;91.80
9847;DHT22;68671;50.084;8.794;2023-08-31T13:54:25;22.80;92.00
9847;DHT22;68671;50.084;8.794;2023-08-31T13:56:52;22.90;92.40
9847;DHT22;68671;50.084;8.794;2023-08-31T13:59:19;22.90;92.60
9847;DHT22;68671;50.084;8.794;2023-08-31T14:01:46;23.00;93.10
9847;DHT22;68671;50.084;8.794;2023-08-31T14:04:14;23.00;93.40
9847;DHT22;68671;50.084;8.794;2023-08-31T14:06:41;23.10;93.60
9847;DHT22;68671;50.084;8.794;2023-08-31T14:09:08;23.10;93.60
9847;DHT22;68671;50.084;8.794;2023-08-31T14:11:35;23.20;93.60
9847;DHT22;68671;50.084;8.794;2023-08-31T14:14:03;23.20;93.50
9847;DHT22;68671;50.084;8.794;2023-08-31T14:16:31;23.20;93.40
9847;DHT22;68671;50.084;8.794;2023-08-31T14:18:59;23.30;93.30
9847;DHT22;68671;50.084;8.794;2023-08-31T14:21:27;23.20;92.90
9847;DHT22;68671;50.084;8.794;2023-08-31T14:23:54;23.20;92.70
9847;DHT22;68671;50.084;8.794;2023-08-31T14:26:21;23.20;92.50
9847;DHT22;68671;50.084;8.794;2023-08-31T14:28:49;23.20;92.20
9847;DHT22;68671;50.084;8.794;2023-08-31T14:31:16;23.10;93.90
9847;DHT22;68671;50.084;8.794;2023-08-31T14:33:43;23.00;95.80
9847;DHT22;68671;50.084;8.794;2023-08-31T14:36:12;22.90;98.70
9847;DHT22;68671;50.084;8.794;2023-08-31T14:38:40;22.60;99.90
9847;DHT22;68671;50.084;8.794;2023-08-31T14:41:07;22.40;99.90
9847;DHT22;68671;50.084;8.794;2023-08-31T14:43:34;22.20;99.90
9847;DHT22;68671;50.084;8.794;2023-08-31T14:46:01;22.10;99.90
9847;DHT22;68671;50.084;8.794;2023-08-31T14:48:29;22.00;99.90
9847;DHT22;68671;50.084;8.794;2023-08-31T14:50:57;21.90;99.90
9847;DHT22;68671;50.084;8.794;2023-08-31T14:53:26;21.80;99.90
9847;DHT22;68671;50.084;8.794;2023-08-31T14:55:54;21.70;99.90
9847;DHT22;68671;50.084;8.794;2023-08-31T14:58:24;21.70;99.90
9847;DHT22;68671;50.084;8.794;2023-08-31T15:00:50;21.60;99.90
9847;DHT22;68671;50.084;8.794;2023-08-31T15:03:21;21.60;99.90
9847;DHT22;68671;50.084;8.794;2023-08-31T15:05:49;21.50;99.90
9847;DHT22;68671;50.084;8.794;2023-08-31T15:08:16;21.50;99.90
9847;DHT22;68671;50.084;8.794;2023-08-31T15:10:43;21.50;99.90
9847;DHT22;68671;50.084;8.794;2023-08-31T15:13:11;21.50;99.90
9847;DHT22;68671;50.084;8.794;2023-08-31T15:15:38;21.50;99.90
9847;DHT22;68671;50.084;8.794;2023-08-31T15:18:05;21.50;99.90
9847;DHT22;68671;50.084;8.794;2023-08-31T15:20:32;21.60;99.90
9847;DHT22;68671;50.084;8.794;2023-08-31T15:22:59;21.60;99.90
9847;DHT22;68671;50.084;8.794;2023-08-31T15:25:26;21.60;99.90
9847;DHT22;68671;50.084;8.794;2023-08-31T15:27:52;21.60;99.90
9847;DHT22;68671;50.084;8.794;2023-08-31T15:30:21;21.70;99.90
9847;DHT22;68671;50.084;8.794;2023-08-31T15:32:48;21.70;99.90
9847;DHT22;68671;50.084;8.794;2023-08-31T15:35:15;21.70;99.90
9847;DHT22;68671;50.084;8.794;2023-08-31T15:37:42;21.70;99.90
9847;DHT22;68671;50.084;8.794;2023-08-31T15:40:13;21.70;99.90
9847;DHT22;68671;50.084;8.794;2023-08-31T15:42:41;21.70;99.90
9847;DHT22;68671;50.084;8.794;2023-08-31T15:45:09;21.70;99.90
9847;DHT22;68671;50.084;8.794;2023-08-31T15:47:38;21.70;99.90
9847;DHT22;68671;50.084;8.794;2023-08-31T15:50:06;21.70;99.90
9847;DHT22;68671;50.084;8.794;2023-08-31T15:52:33;21.70;99.90
9847;DHT22;68671;50.084;8.794;2023-08-31T15:55:01;21.70;99.90
9847;DHT22;68671;50.084;8.794;2023-08-31T15:57:30;21.70;99.90
9847;DHT22;68671;50.084;8.794;2023-08-31T15:59:58;21.70;99.90
9847;DHT22;68671;50.084;8.794;2023-08-31T16:02:25;21.70;99.90
9847;DHT22;68671;50.084;8.794;2023-08-31T16:04:54;21.60;99.90